Escanaba, MI

12:57 PM EDT on May 29, 2015 (GMT -0400)
Sawyer International | | Change Station
CLOSE
Current Station
Airport
Location: Gwinn,
Elevation: 1220 ft
Nearby Weather Stations

Elev 1220 ft 46.34 °N, 87.40 °W | Updated 12 minutes ago

Rain
Rain
66 °F
Feels Like 66 °F
N
10
Wind Variable Wind from South

Today
High -- | Low -- °F
--% Chance of Precip.
Yesterday
High -- | Low -- °F
Precip. -- in
6:04 AM 9:27 PM
Waxing Gibbous, 84% visible
Pressure 29.92 in
Visibility 10.0 miles
Clouds Scattered Clouds 8000 ft
Mostly Cloudy 12000 ft
Dew Point 59 °F
Humidity 78%
Rainfall 0.00 in
Snow Depth Not available.
UV 6 out of 12
Pollen 5.20 out of 12
Air Quality Not available.
Flu Activity Sporadic
METAR KSAW 291645Z 18009KT 10SM SCT080 BKN120 19/15 A2992

More Conditions Fewer Conditions

Pressure 29.92 in
Visibility 10.0 miles
Clouds Scattered Clouds 8000 ft
Mostly Cloudy 12000 ft
Dew Point 59 °F
Humidity 78%
Rainfall 0.00 in
Snow Depth Not available.
UV 6 out of 12
Pollen 5.20 out of 12
Air Quality Not available.
Flu Activity Sporadic
METAR KSAW 291645Z 18009KT 10SM SCT080 BKN120 19/15 A2992

More Conditions Fewer Conditions

10-Day Weather Forecast

Almanac

Astronomy

May. 29, 2015 Rise Set
Actual Time
Civil Twilight
Nautical Twilight
Astronomical Twilight
Moon
Length of Visible Light
Length of Day
Tomorrow will be .
, % of the Moon is Illuminated

Today's Extremes

State Highs State Lows

Community

WunderPhotos

Upload Photos

1,825,301 photos uploaded!

WunderBlogs® & News

Nearby

Air Quality

  Air Quality AQ Index Pollutant
Not available.

Snow Depth

Station Depth Elevation

Earthquake Activity

City Distance Mag. Time & Date
Minimum magnitude displayed is 2.5.

Coastal Water Temperatures

Place Temperature

Stations

Nearby Weather Stations

Station Location Temp. Windchill Dew Point Humidity Wind Precip. Elev Updated Type